createdAt,value
2023-05-02T00:01:21.978Z,13.70
2023-05-02T00:03:49.327Z,13.70
2023-05-02T00:06:17.204Z,13.70
2023-05-02T00:08:44.570Z,13.70
2023-05-02T00:11:11.698Z,13.70
2023-05-02T00:13:38.879Z,13.70
2023-05-02T00:16:06.465Z,13.70
2023-05-02T00:18:33.704Z,13.70
2023-05-02T00:21:00.886Z,13.70
2023-05-02T00:23:28.022Z,13.60
2023-05-02T00:25:55.173Z,13.60
2023-05-02T00:28:22.311Z,13.70
2023-05-02T00:30:49.429Z,13.60
2023-05-02T00:33:16.622Z,13.70
2023-05-02T00:35:43.846Z,13.60
2023-05-02T00:38:11.151Z,13.50
2023-05-02T00:40:48.630Z,13.50
2023-05-02T00:43:16.361Z,13.50
2023-05-02T00:45:45.730Z,13.40
2023-05-02T00:48:13.658Z,13.40
2023-05-02T00:50:43.266Z,13.40
2023-05-02T00:53:11.401Z,13.40
2023-05-02T00:55:38.994Z,13.30
2023-05-02T00:58:19.353Z,13.30
2023-05-02T01:01:22.954Z,13.40
2023-05-02T01:03:53.126Z,13.40
2023-05-02T01:06:41.989Z,13.50
2023-05-02T01:09:36.019Z,13.50
2023-05-02T01:12:16.376Z,13.60
2023-05-02T01:14:47.181Z,13.60
2023-05-02T01:17:16.471Z,13.60
2023-05-02T01:19:54.234Z,13.60
2023-05-02T01:22:22.680Z,13.60
2023-05-02T01:25:04.520Z,13.60
2023-05-02T01:27:41.524Z,13.60
2023-05-02T01:30:10.236Z,13.60
2023-05-02T01:32:39.752Z,13.60
2023-05-02T01:35:08.765Z,13.60
2023-05-02T01:37:39.701Z,13.60
2023-05-02T01:40:10.456Z,13.60
2023-05-02T01:42:39.507Z,13.70
2023-05-02T01:45:08.988Z,13.70
2023-05-02T01:47:38.023Z,13.80
2023-05-02T01:50:09.732Z,13.80
2023-05-02T01:52:38.705Z,13.80
2023-05-02T01:55:08.966Z,13.80
2023-05-02T01:57:39.578Z,13.80
2023-05-02T02:00:10.005Z,13.90
2023-05-02T02:02:38.084Z,13.90
2023-05-02T02:05:07.647Z,13.90
2023-05-02T02:07:35.143Z,13.80
2023-05-02T02:10:02.572Z,13.80
2023-05-02T02:12:32.300Z,13.80
2023-05-02T02:15:17.130Z,13.80
2023-05-02T02:17:48.554Z,13.80
2023-05-02T02:20:17.260Z,13.90
2023-05-02T02:22:45.902Z,13.80
2023-05-02T02:25:17.837Z,13.90
2023-05-02T02:27:45.037Z,13.90
2023-05-02T02:30:12.730Z,13.80
2023-05-02T02:32:40.231Z,13.80
2023-05-02T02:35:07.738Z,13.90
2023-05-02T02:38:08.219Z,13.90
2023-05-02T02:40:42.356Z,13.90
2023-05-02T02:43:27.679Z,13.90
2023-05-02T02:46:15.579Z,13.90
2023-05-02T02:49:24.616Z,13.90
2023-05-02T02:51:58.994Z,13.90
2023-05-02T02:54:46.790Z,13.90
2023-05-02T02:57:47.522Z,13.90
2023-05-02T03:00:20.657Z,14.00
2023-05-02T03:02:48.650Z,13.90
2023-05-02T03:05:16.885Z,14.00
2023-05-02T03:07:44.118Z,14.00
2023-05-02T03:10:12.159Z,14.10
2023-05-02T03:12:40.242Z,14.10
2023-05-02T03:15:44.903Z,14.10
2023-05-02T03:18:12.025Z,14.10
2023-05-02T03:20:39.999Z,14.10
2023-05-02T03:23:07.068Z,14.00
2023-05-02T03:25:34.690Z,14.00
2023-05-02T03:28:01.765Z,14.10
2023-05-02T03:30:29.001Z,14.00
2023-05-02T03:32:56.238Z,14.00
2023-05-02T03:35:23.447Z,13.90
2023-05-02T03:37:50.962Z,13.90
2023-05-02T03:40:22.061Z,13.90
2023-05-02T03:42:49.290Z,13.90
2023-05-02T03:45:16.665Z,13.90
2023-05-02T03:47:43.930Z,13.90
2023-05-02T03:50:11.327Z,13.80
2023-05-02T03:52:38.402Z,13.80
2023-05-02T03:55:08.045Z,13.80
2023-05-02T03:57:35.210Z,13.70
2023-05-02T04:00:02.732Z,13.80
2023-05-02T04:02:30.753Z,13.90
2023-05-02T04:04:58.052Z,13.90
2023-05-02T04:07:26.175Z,13.90
2023-05-02T04:09:53.347Z,13.90
2023-05-02T04:12:20.744Z,14.00
2023-05-02T04:14:47.943Z,14.00
2023-05-02T04:17:18.271Z,14.00
2023-05-02T04:19:45.624Z,14.00
2023-05-02T04:22:12.805Z,14.00
2023-05-02T04:24:39.927Z,14.10
2023-05-02T04:27:08.018Z,14.10
2023-05-02T04:29:35.234Z,14.20
2023-05-02T04:32:02.745Z,14.20
2023-05-02T04:34:30.503Z,14.20
2023-05-02T04:36:57.632Z,14.20
2023-05-02T04:39:24.799Z,14.20
2023-05-02T04:41:52.046Z,14.20
2023-05-02T04:44:19.145Z,14.30
2023-05-02T04:46:46.508Z,14.30
2023-05-02T04:49:14.013Z,14.30
2023-05-02T04:51:41.199Z,14.50
2023-05-02T04:54:08.386Z,14.50
2023-05-02T04:56:35.682Z,14.60
2023-05-02T04:59:02.733Z,14.60
2023-05-02T05:01:30.110Z,14.60
2023-05-02T05:03:57.285Z,14.60
2023-05-02T05:06:24.700Z,14.70
2023-05-02T05:08:52.021Z,14.70
2023-05-02T05:11:19.121Z,14.70
2023-05-02T05:13:46.493Z,14.70
2023-05-02T05:16:13.658Z,14.70
2023-05-02T05:18:41.036Z,14.80
2023-05-02T05:21:08.909Z,14.80
2023-05-02T05:23:37.244Z,14.90
2023-05-02T05:26:15.495Z,14.90
2023-05-02T05:28:43.706Z,15.00
2023-05-02T05:31:17.622Z,15.10
2023-05-02T05:33:44.912Z,15.10
2023-05-02T05:36:15.126Z,15.20
2023-05-02T05:38:42.251Z,15.30
2023-05-02T05:41:09.605Z,15.40
2023-05-02T05:43:38.135Z,15.40
2023-05-02T05:46:05.664Z,15.50
2023-05-02T05:48:32.728Z,15.60
2023-05-02T05:51:05.440Z,15.70
2023-05-02T05:53:32.599Z,15.80
2023-05-02T05:56:00.102Z,15.90
2023-05-02T05:58:27.300Z,15.90
2023-05-02T06:00:55.163Z,15.80
2023-05-02T06:03:22.471Z,15.90
2023-05-02T06:05:49.638Z,16.00
2023-05-02T06:08:16.880Z,16.20
2023-05-02T06:10:44.020Z,16.20
2023-05-02T06:13:11.124Z,16.30
2023-05-02T06:15:38.400Z,16.40
2023-05-02T06:18:05.589Z,16.40
2023-05-02T06:20:32.865Z,16.50
2023-05-02T06:23:00.011Z,16.60
2023-05-02T06:25:27.152Z,16.50
2023-05-02T06:27:54.278Z,16.50
2023-05-02T06:30:21.491Z,16.50
2023-05-02T06:32:48.685Z,16.60
2023-05-02T06:35:16.316Z,16.70
2023-05-02T06:37:43.777Z,16.60
2023-05-02T06:40:11.367Z,16.70
2023-05-02T06:42:38.599Z,16.70
2023-05-02T06:45:06.094Z,16.70
2023-05-02T06:47:33.415Z,16.70
2023-05-02T06:50:00.907Z,16.50
2023-05-02T06:52:28.600Z,16.70
2023-05-02T06:54:55.829Z,16.70
2023-05-02T06:57:23.013Z,16.70
2023-05-02T06:59:50.094Z,16.80
2023-05-02T07:02:17.268Z,16.80
2023-05-02T07:04:44.516Z,16.90
2023-05-02T07:07:11.853Z,17.00
2023-05-02T07:09:39.144Z,17.00
2023-05-02T07:12:07.075Z,17.10
2023-05-02T07:14:34.392Z,17.30
2023-05-02T07:17:01.695Z,17.40
2023-05-02T07:19:28.903Z,17.50
2023-05-02T07:22:02.231Z,17.50
2023-05-02T07:24:29.645Z,17.40
2023-05-02T07:26:56.709Z,16.90
2023-05-02T07:29:23.867Z,17.00
2023-05-02T07:31:51.909Z,17.10
2023-05-02T07:34:19.139Z,17.30
2023-05-02T07:36:46.256Z,17.30
2023-05-02T07:39:13.331Z,17.30
2023-05-02T07:41:40.488Z,17.30
2023-05-02T07:44:07.668Z,17.20
2023-05-02T07:46:34.940Z,17.20
2023-05-02T07:49:02.127Z,17.20
2023-05-02T07:51:29.312Z,17.10
2023-05-02T07:53:58.808Z,17.10
2023-05-02T07:56:26.231Z,17.10
2023-05-02T07:58:53.627Z,17.10
2023-05-02T08:01:20.798Z,17.20
2023-05-02T08:03:48.957Z,16.90
2023-05-02T08:06:16.283Z,17.00
2023-05-02T08:08:43.505Z,17.00
2023-05-02T08:11:10.741Z,17.10
2023-05-02T08:13:37.886Z,17.20
2023-05-02T08:16:05.228Z,17.00
2023-05-02T08:18:32.552Z,16.90
2023-05-02T08:20:59.634Z,17.00
2023-05-02T08:23:26.750Z,17.00
2023-05-02T08:25:54.523Z,17.00
2023-05-02T08:28:21.687Z,17.10
2023-05-02T08:30:49.308Z,17.00
2023-05-02T08:33:16.625Z,17.00
2023-05-02T08:35:43.983Z,17.20
2023-05-02T08:38:11.389Z,17.10
2023-05-02T08:40:42.669Z,17.20
2023-05-02T08:43:12.370Z,17.20
2023-05-02T08:45:44.565Z,17.10
2023-05-02T08:48:14.032Z,17.20
2023-05-02T08:50:48.254Z,17.20
2023-05-02T08:53:18.323Z,17.00
2023-05-02T08:55:46.255Z,17.00
2023-05-02T08:58:15.262Z,16.90
2023-05-02T09:00:44.248Z,17.00
2023-05-02T09:03:17.404Z,16.90
2023-05-02T09:05:51.408Z,16.80
2023-05-02T09:08:25.526Z,16.70
2023-05-02T09:10:52.928Z,16.80
2023-05-02T09:13:30.933Z,16.60
2023-05-02T09:16:08.295Z,16.40
2023-05-02T09:18:37.839Z,16.30
2023-05-02T09:21:09.172Z,16.30
2023-05-02T09:23:42.057Z,16.50
2023-05-02T09:26:16.626Z,16.40
2023-05-02T09:28:49.060Z,16.30
2023-05-02T09:31:49.862Z,16.40
2023-05-02T09:34:16.936Z,16.40
2023-05-02T09:36:50.718Z,16.40
2023-05-02T09:39:22.409Z,16.20
2023-05-02T09:41:50.254Z,16.10
2023-05-02T09:44:21.532Z,16.10
2023-05-02T09:46:51.211Z,16.20
2023-05-02T09:49:19.563Z,16.10
2023-05-02T09:51:48.338Z,16.20
2023-05-02T09:54:36.043Z,16.20
2023-05-02T09:57:03.876Z,16.30
2023-05-02T09:59:31.024Z,16.40
2023-05-02T10:02:00.492Z,16.50
2023-05-02T10:04:29.606Z,16.70
2023-05-02T10:06:57.910Z,16.80
2023-05-02T10:09:26.761Z,17.00
2023-05-02T10:11:55.045Z,17.00
2023-05-02T10:14:27.829Z,17.00
2023-05-02T10:17:04.372Z,17.20
2023-05-02T10:19:38.904Z,17.10
2023-05-02T10:22:07.545Z,17.20
2023-05-02T10:24:35.026Z,17.20
2023-05-02T10:27:04.922Z,17.10
2023-05-02T10:29:32.722Z,16.80
2023-05-02T10:32:02.764Z,16.80
2023-05-02T10:34:34.077Z,16.70
2023-05-02T10:37:02.611Z,16.70
2023-05-02T10:39:30.500Z,16.80
2023-05-02T10:42:00.240Z,17.00
2023-05-02T10:44:38.133Z,17.00
2023-05-02T10:47:21.977Z,16.90
2023-05-02T10:49:52.976Z,17.20
2023-05-02T10:52:27.804Z,17.60
2023-05-02T10:55:21.434Z,17.40
2023-05-02T10:58:00.722Z,17.40
2023-05-02T11:00:30.371Z,17.60
2023-05-02T11:02:57.906Z,17.70
2023-05-02T11:05:26.501Z,17.60
2023-05-02T11:08:15.738Z,17.30
2023-05-02T11:10:43.241Z,17.60
2023-05-02T11:13:10.558Z,17.50
2023-05-02T11:15:40.513Z,17.30
2023-05-02T11:18:14.634Z,17.30
2023-05-02T11:20:43.653Z,17.40
2023-05-02T11:23:17.048Z,17.30
2023-05-02T11:25:48.803Z,17.20
2023-05-02T11:28:34.486Z,17.20
2023-05-02T11:31:01.515Z,17.20
2023-05-02T11:33:29.599Z,17.20
2023-05-02T11:35:59.728Z,17.30
2023-05-02T11:38:35.106Z,17.20
2023-05-02T11:41:04.391Z,17.00
2023-05-02T11:43:32.602Z,17.00
2023-05-02T11:46:01.922Z,17.00
2023-05-02T11:48:30.845Z,17.10
2023-05-02T11:51:05.758Z,17.10
2023-05-02T11:53:34.228Z,17.00
2023-05-02T11:56:04.684Z,16.90
2023-05-02T11:58:33.743Z,16.80
2023-05-02T12:01:14.258Z,16.80
2023-05-02T12:03:42.136Z,16.80
2023-05-02T12:06:14.928Z,16.90
2023-05-02T12:08:44.613Z,17.10
2023-05-02T12:11:16.717Z,17.20
2023-05-02T12:13:48.872Z,17.30
2023-05-02T12:16:17.498Z,17.50
2023-05-02T12:18:45.687Z,17.80
2023-05-02T12:21:13.093Z,18.10
2023-05-02T12:23:42.587Z,18.00
2023-05-02T12:26:21.605Z,18.00
2023-05-02T12:28:55.028Z,17.90
2023-05-02T12:31:23.109Z,17.80
2023-05-02T12:33:52.784Z,17.50
2023-05-02T12:36:20.535Z,17.50
2023-05-02T12:38:57.266Z,17.20
2023-05-02T12:41:39.292Z,17.10
2023-05-02T12:44:10.179Z,17.00
2023-05-02T12:46:37.616Z,17.00
2023-05-02T12:49:09.998Z,17.00
2023-05-02T12:51:38.295Z,17.00
2023-05-02T12:54:06.831Z,16.90
2023-05-02T12:56:41.419Z,16.70
2023-05-02T12:59:09.146Z,16.70
2023-05-02T13:01:36.546Z,16.70
2023-05-02T13:04:04.323Z,16.70
2023-05-02T13:06:31.798Z,16.70
2023-05-02T13:08:59.137Z,16.70
2023-05-02T13:11:26.402Z,16.70
2023-05-02T13:13:54.336Z,16.50
2023-05-02T13:16:21.797Z,16.40
2023-05-02T13:18:49.258Z,16.20
2023-05-02T13:21:16.564Z,16.10
2023-05-02T13:23:44.403Z,16.00
2023-05-02T13:26:12.042Z,15.90
2023-05-02T13:28:39.132Z,16.00
2023-05-02T13:31:07.540Z,16.00
2023-05-02T13:33:34.883Z,15.90
2023-05-02T13:36:01.993Z,16.00
2023-05-02T13:38:29.259Z,16.00
2023-05-02T13:40:56.485Z,15.90
2023-05-02T13:43:24.510Z,15.80
2023-05-02T13:45:53.951Z,15.80
2023-05-02T13:48:22.455Z,15.80
2023-05-02T13:50:49.737Z,15.70
2023-05-02T13:53:17.301Z,15.70
2023-05-02T13:55:44.922Z,15.70
2023-05-02T13:58:12.118Z,15.70
2023-05-02T14:00:39.353Z,15.70
2023-05-02T14:03:07.247Z,15.80
2023-05-02T14:05:34.456Z,15.70
2023-05-02T14:08:01.550Z,15.70
2023-05-02T14:10:28.753Z,15.60
2023-05-02T14:12:55.976Z,15.40
2023-05-02T14:15:24.065Z,15.40
2023-05-02T14:17:51.404Z,15.40
2023-05-02T14:20:18.944Z,15.30
2023-05-02T14:22:46.062Z,15.40
2023-05-02T14:25:14.355Z,15.40
2023-05-02T14:27:42.547Z,15.40
2023-05-02T14:30:10.064Z,15.30
2023-05-02T14:32:37.302Z,15.40
2023-05-02T14:35:04.629Z,15.30
2023-05-02T14:37:31.945Z,15.30
2023-05-02T14:39:59.520Z,15.30
2023-05-02T14:42:26.876Z,15.30
2023-05-02T14:44:54.189Z,15.30
2023-05-02T14:47:21.532Z,15.30
2023-05-02T14:49:48.926Z,15.20
2023-05-02T14:52:16.103Z,15.30
2023-05-02T14:54:43.374Z,15.40
2023-05-02T14:57:11.636Z,15.40
2023-05-02T14:59:39.047Z,15.50
2023-05-02T15:02:06.990Z,15.50
2023-05-02T15:04:34.537Z,15.60
2023-05-02T15:07:01.970Z,15.60
2023-05-02T15:09:29.454Z,15.60
2023-05-02T15:11:57.014Z,15.60
2023-05-02T15:14:24.386Z,15.60
2023-05-02T15:16:51.761Z,15.60
2023-05-02T15:19:27.694Z,15.60
2023-05-02T15:22:01.855Z,15.60
2023-05-02T15:24:32.803Z,15.70
2023-05-02T15:27:00.538Z,15.70
2023-05-02T15:29:27.615Z,15.70
2023-05-02T15:31:58.079Z,15.70
2023-05-02T15:34:25.829Z,15.80
2023-05-02T15:36:57.962Z,15.80
2023-05-02T15:39:29.667Z,15.90
2023-05-02T15:42:00.788Z,15.90
2023-05-02T15:44:30.590Z,16.00
2023-05-02T15:47:01.930Z,16.00
2023-05-02T15:49:34.899Z,16.00
2023-05-02T15:52:03.598Z,16.00
2023-05-02T15:54:32.306Z,16.00
2023-05-02T15:56:59.639Z,15.90
2023-05-02T15:59:26.872Z,15.90
2023-05-02T16:01:54.148Z,15.80
2023-05-02T16:04:21.565Z,15.80
2023-05-02T16:06:48.833Z,15.70
2023-05-02T16:09:15.918Z,15.70
2023-05-02T16:11:44.688Z,15.60
2023-05-02T16:14:11.814Z,15.60
2023-05-02T16:16:39.257Z,15.60
2023-05-02T16:19:14.528Z,15.60
2023-05-02T16:21:42.776Z,15.50
2023-05-02T16:24:10.262Z,15.50
2023-05-02T16:26:37.374Z,15.50
2023-05-02T16:29:04.887Z,15.50
2023-05-02T16:31:32.203Z,15.50
2023-05-02T16:33:59.501Z,15.50
2023-05-02T16:36:27.969Z,15.50
2023-05-02T16:38:55.130Z,15.50
2023-05-02T16:41:22.565Z,15.50
2023-05-02T16:43:50.107Z,15.50
2023-05-02T16:46:18.117Z,15.50
2023-05-02T16:48:45.532Z,15.50
2023-05-02T16:51:12.782Z,15.50
2023-05-02T16:53:39.932Z,15.40
2023-05-02T16:56:07.647Z,15.40
2023-05-02T16:58:34.860Z,15.40
2023-05-02T17:01:02.277Z,15.40
2023-05-02T17:03:29.898Z,15.40
2023-05-02T17:06:02.848Z,15.50
2023-05-02T17:08:30.979Z,15.50
2023-05-02T17:10:58.210Z,15.50
2023-05-02T17:13:25.410Z,15.50
2023-05-02T17:15:53.818Z,15.50
2023-05-02T17:18:22.092Z,15.50
2023-05-02T17:20:49.552Z,15.60
2023-05-02T17:23:17.129Z,15.60
2023-05-02T17:25:44.515Z,15.50
2023-05-02T17:28:11.635Z,15.50
2023-05-02T17:30:38.791Z,15.50
2023-05-02T17:33:06.912Z,15.50
2023-05-02T17:35:34.178Z,15.50
2023-05-02T17:38:01.233Z,15.50
2023-05-02T17:40:28.502Z,15.50
2023-05-02T17:42:57.650Z,15.50
2023-05-02T17:45:24.902Z,15.50
2023-05-02T17:47:52.146Z,15.50
2023-05-02T17:50:19.678Z,15.60
2023-05-02T17:52:46.796Z,15.60
2023-05-02T17:55:14.042Z,15.60
2023-05-02T17:57:41.219Z,15.50
2023-05-02T18:00:09.165Z,15.50
2023-05-02T18:02:42.902Z,15.50
2023-05-02T18:05:10.292Z,15.40
2023-05-02T18:07:37.392Z,15.40
2023-05-02T18:10:05.404Z,15.30
2023-05-02T18:12:33.825Z,15.30
2023-05-02T18:15:02.380Z,15.20
2023-05-02T18:17:29.762Z,15.30
2023-05-02T18:19:57.132Z,15.30
2023-05-02T18:22:24.734Z,15.30
2023-05-02T18:24:53.626Z,15.40
2023-05-02T18:27:23.239Z,15.40
2023-05-02T18:29:51.390Z,15.30
2023-05-02T18:32:19.484Z,15.40
2023-05-02T18:34:49.413Z,15.30
2023-05-02T18:37:17.970Z,15.30
2023-05-02T18:39:46.040Z,15.30
2023-05-02T18:42:15.334Z,15.30
2023-05-02T18:44:45.130Z,15.30
2023-05-02T18:47:15.094Z,15.40
2023-05-02T18:49:44.922Z,15.40
2023-05-02T18:52:14.476Z,15.40
2023-05-02T18:54:43.464Z,15.40
2023-05-02T18:57:13.992Z,15.40
2023-05-02T18:59:43.346Z,15.40
2023-05-02T19:02:12.340Z,15.30
2023-05-02T19:04:41.140Z,15.30
2023-05-02T19:07:09.916Z,15.20
2023-05-02T19:09:38.937Z,15.20
2023-05-02T19:12:08.240Z,15.20
2023-05-02T19:14:40.422Z,15.10
2023-05-02T19:17:09.613Z,15.10
2023-05-02T19:19:38.896Z,15.10
2023-05-02T19:22:07.947Z,15.00
2023-05-02T19:24:38.050Z,15.00
2023-05-02T19:27:11.201Z,15.00
2023-05-02T19:29:40.912Z,14.90
2023-05-02T19:32:11.156Z,14.90
2023-05-02T19:34:40.097Z,14.80
2023-05-02T19:37:09.435Z,14.80
2023-05-02T19:39:38.747Z,14.80
2023-05-02T19:42:07.769Z,14.80
2023-05-02T19:44:36.930Z,14.80
2023-05-02T19:47:06.173Z,14.80
2023-05-02T19:49:35.059Z,14.90
2023-05-02T19:52:04.495Z,14.90
2023-05-02T19:54:34.184Z,14.90
2023-05-02T19:57:03.975Z,14.90
2023-05-02T19:59:32.395Z,15.00
2023-05-02T20:02:01.217Z,15.10
2023-05-02T20:04:29.767Z,15.10
2023-05-02T20:06:58.600Z,15.10
2023-05-02T20:09:26.942Z,15.10
2023-05-02T20:11:54.747Z,15.10
2023-05-02T20:14:22.840Z,15.20
2023-05-02T20:16:51.540Z,15.20
2023-05-02T20:19:21.888Z,15.20
2023-05-02T20:21:50.892Z,15.20
2023-05-02T20:24:19.181Z,15.20
2023-05-02T20:26:47.821Z,15.20
2023-05-02T20:29:16.617Z,15.20
2023-05-02T20:31:44.493Z,15.20
2023-05-02T20:34:11.940Z,15.20
2023-05-02T20:36:39.137Z,15.20
2023-05-02T20:39:10.082Z,15.20
2023-05-02T20:41:37.862Z,15.20
2023-05-02T20:44:05.116Z,15.20
2023-05-02T20:46:32.617Z,15.10
2023-05-02T20:48:59.845Z,15.10
2023-05-02T20:51:30.401Z,15.00
2023-05-02T20:53:59.355Z,15.00
2023-05-02T20:56:26.487Z,15.00
2023-05-02T20:58:53.726Z,15.00
2023-05-02T21:01:20.926Z,15.10
2023-05-02T21:03:48.176Z,15.10
2023-05-02T21:06:15.600Z,15.10
2023-05-02T21:08:42.831Z,15.10
2023-05-02T21:11:14.913Z,15.20
2023-05-02T21:13:43.268Z,15.10
2023-05-02T21:16:18.320Z,15.10
2023-05-02T21:18:46.644Z,15.00
2023-05-02T21:21:13.949Z,15.00
2023-05-02T21:23:41.058Z,14.80
2023-05-02T21:26:08.209Z,14.80
2023-05-02T21:28:35.498Z,14.80
2023-05-02T21:31:02.790Z,14.80
2023-05-02T21:33:30.072Z,14.80
2023-05-02T21:35:58.058Z,14.80
2023-05-02T21:38:26.623Z,14.80
2023-05-02T21:40:54.362Z,14.70
2023-05-02T21:43:21.558Z,14.70
2023-05-02T21:45:50.082Z,14.70
2023-05-02T21:48:17.701Z,14.70
2023-05-02T21:50:45.252Z,14.70
2023-05-02T21:53:12.545Z,14.80
2023-05-02T21:55:41.141Z,14.80
2023-05-02T21:58:10.751Z,14.80
2023-05-02T22:00:38.780Z,14.80
2023-05-02T22:03:08.443Z,14.90
2023-05-02T22:05:42.543Z,14.90
2023-05-02T22:08:11.583Z,15.00
2023-05-02T22:10:42.639Z,15.00
2023-05-02T22:13:14.784Z,15.00
2023-05-02T22:15:46.843Z,14.90
2023-05-02T22:18:15.324Z,14.90
2023-05-02T22:20:43.420Z,14.80
2023-05-02T22:23:11.512Z,14.80
2023-05-02T22:25:41.587Z,14.80
2023-05-02T22:28:11.655Z,14.80
2023-05-02T22:30:45.514Z,14.80
2023-05-02T22:33:14.394Z,14.80
2023-05-02T22:35:41.722Z,14.90
2023-05-02T22:38:11.584Z,14.90
2023-05-02T22:40:38.655Z,14.90
2023-05-02T22:43:05.807Z,14.90
2023-05-02T22:45:33.989Z,14.90
2023-05-02T22:48:01.263Z,14.90
2023-05-02T22:50:28.516Z,14.90
2023-05-02T22:52:59.204Z,14.90
2023-05-02T22:55:26.442Z,14.90
2023-05-02T22:57:53.620Z,14.90
2023-05-02T23:00:22.712Z,14.90
2023-05-02T23:02:50.106Z,14.90
2023-05-02T23:05:17.403Z,14.90
2023-05-02T23:07:44.623Z,14.90
2023-05-02T23:10:11.850Z,14.90
2023-05-02T23:12:39.262Z,14.90
2023-05-02T23:15:07.435Z,14.90
2023-05-02T23:17:38.889Z,14.90
2023-05-02T23:20:08.822Z,15.00
2023-05-02T23:22:36.806Z,14.90
2023-05-02T23:25:04.153Z,15.00
2023-05-02T23:27:31.406Z,14.90
2023-05-02T23:29:58.576Z,14.80
2023-05-02T23:32:26.229Z,14.80
2023-05-02T23:34:53.312Z,14.80
2023-05-02T23:37:21.578Z,14.80
2023-05-02T23:39:49.536Z,14.80
2023-05-02T23:42:16.690Z,14.80
2023-05-02T23:44:46.508Z,14.90
2023-05-02T23:47:13.694Z,14.90
2023-05-02T23:49:42.002Z,14.90
2023-05-02T23:52:09.498Z,14.90
2023-05-02T23:54:36.534Z,14.90
2023-05-02T23:57:03.803Z,14.90
2023-05-02T23:59:31.047Z,14.80
